KNMM

Meridian NAS / Mc Cain Field Airport

Meridian, Mississippi, USA
METAR KNMM 160109Z AUTO 29008KT 10SM OVC020 11/07 A3009 RMK AO2 T01110072 CHINO SOUTH VISNO SOUTH $
Observed Flight Rules
Dec-16 @ 01:09 UTC (43 minutes ago) Marginal Visual Flight Rules
Wind Visibility Clouds
290° at 8 knots 10 miles
  • Overcast at 2,000' AGL
Temperatures Readings
Current 11°C / 52°F
Dewpoint 7°C / 45°F
Humidity 77%
Altimeter 30.09" Hg
Pressure 1019 hPa
Elevation 97
METAR KNMM 160109Z AUTO 29008KT 10SM OVC020 11/07 A3009 RMK AO2 T01110072 CHINO SOUTH VISNO SOUTH $
Observed Flight Rules
Dec-16 @ 01:09 UTC
(43 minutes ago)
MVFR
Wind Visibility
290° at 8 knots 10 miles
Clouds
  • Overcast at 2,000' AGL
Temperature Dewpoint
11°C / 52°F 7°C / 45°F
Humidity Altimeter Pressure
77% 30.09" Hg 1019 hPa